Time;durP1;ratioP1;P1;durP2;ratioP2;P2;SDS_P1;SDS_P2;PMS_P1;PMS_P2;Temp;Humidity;BMP_temperature;BMP_pressure;BME280_temperature;BME280_humidity;BME280_pressure;Samples;Min_cycle;Max_cycle;Signal;HPM_P1;HPM_P2
2022/10/27 00:01:21;;;;;;;5.63;3.17;;;12.70;99.90;;;;;;5000178;28;20078;-80
2022/10/27 00:03:50;;;;;;;4.00;2.60;;;12.70;99.90;;;;;;4985337;28;20054;-80
2022/10/27 00:06:17;;;;;;;5.50;3.05;;;12.70;99.90;;;;;;5000746;28;20073;-80
2022/10/27 00:08:42;;;;;;;11.57;3.63;;;12.70;99.90;;;;;;5009480;28;20696;-80
2022/10/27 00:11:08;;;;;;;8.82;4.10;;;12.70;99.90;;;;;;5007581;28;20053;-80
2022/10/27 00:13:34;;;;;;;13.77;4.30;;;12.70;99.90;;;;;;5025196;28;20578;-80
2022/10/27 00:16:03;;;;;;;4.68;3.65;;;12.70;99.90;;;;;;5007371;28;20088;-80
2022/10/27 00:18:28;;;;;;;7.85;4.53;;;12.70;99.90;;;;;;5025055;28;20128;-80
2022/10/27 00:21:20;;;;;;;6.55;3.65;;;12.60;99.90;;;;;;5025299;28;20057;-80
2022/10/27 00:23:50;;;;;;;6.67;3.33;;;12.70;99.90;;;;;;5021532;28;20115;-80
2022/10/27 00:26:19;;;;;;;8.60;3.55;;;12.70;99.90;;;;;;4976840;28;20297;-80
2022/10/27 00:28:44;;;;;;;7.60;3.63;;;12.70;99.90;;;;;;5005295;28;20045;-80
2022/10/27 00:31:15;;;;;;;6.80;3.90;;;12.70;99.90;;;;;;5005275;28;20111;-80
2022/10/27 00:33:42;;;;;;;11.98;3.63;;;12.70;99.90;;;;;;5005575;28;20049;-80
2022/10/27 00:36:11;;;;;;;6.93;3.65;;;12.70;99.90;;;;;;5018116;28;20041;-80
2022/10/27 00:38:37;;;;;;;8.15;3.85;;;12.70;99.90;;;;;;5018842;28;20853;-80
2022/10/27 00:41:04;;;;;;;7.03;4.28;;;12.70;99.90;;;;;;4971364;28;20125;-80
2022/10/27 00:43:35;;;;;;;10.00;3.75;;;12.60;99.90;;;;;;5005304;28;20074;-80
2022/10/27 00:46:19;;;;;;;5.43;3.40;;;12.60;99.90;;;;;;4987230;28;20085;-80
2022/10/27 00:48:46;;;;;;;6.63;3.75;;;12.60;99.90;;;;;;4988203;28;20133;-80
2022/10/27 00:51:15;;;;;;;7.03;3.80;;;12.60;99.90;;;;;;5004188;28;20053;-80
2022/10/27 00:53:42;;;;;;;4.32;3.15;;;12.60;99.90;;;;;;4988413;28;20054;-80
2022/10/27 00:56:08;;;;;;;10.40;4.43;;;12.50;99.90;;;;;;5009187;28;20052;-80
2022/10/27 00:58:33;;;;;;;7.03;3.85;;;12.50;99.90;;;;;;4991664;28;20042;-80
2022/10/27 01:01:00;;;;;;;15.82;4.07;;;12.50;99.90;;;;;;5025382;28;20091;-80
2022/10/27 01:03:26;;;;;;;6.70;4.07;;;12.40;99.90;;;;;;5028188;28;20381;-80
2022/10/27 01:05:53;;;;;;;10.60;4.75;;;12.40;99.90;;;;;;5026616;28;20091;-80
2022/10/27 01:08:22;;;;;;;13.20;5.13;;;12.40;99.90;;;;;;5025490;28;20077;-80
2022/10/27 01:10:47;;;;;;;9.82;5.18;;;12.40;99.90;;;;;;4975383;28;20057;-80
2022/10/27 01:13:13;;;;;;;10.85;5.07;;;12.40;99.90;;;;;;4993309;28;20053;-80
2022/10/27 01:15:54;;;;;;;7.35;4.95;;;12.30;99.90;;;;;;5060204;23;20951;-80
2022/10/27 01:18:39;;;;;;;9.77;6.18;;;12.30;99.90;;;;;;4988060;28;20053;-80
2022/10/27 01:21:17;;;;;;;17.40;4.90;;;12.30;99.90;;;;;;4988127;28;20101;-81
2022/10/27 01:24:21;;;;;;;7.28;5.85;;;12.30;99.90;;;;;;4987748;28;20046;-80
2022/10/27 01:27:19;;;;;;;10.25;5.07;;;12.30;99.90;;;;;;4987859;28;20095;-80
2022/10/27 01:29:48;;;;;;;10.60;6.85;;;12.30;99.90;;;;;;4976228;28;20397;-80
2022/10/27 01:32:19;;;;;;;8.55;5.30;;;12.30;99.90;;;;;;4987921;28;20046;-80
2022/10/27 01:35:07;;;;;;;7.10;5.50;;;12.30;99.90;;;;;;4989236;28;20053;-80
2022/10/27 01:37:33;;;;;;;15.63;7.40;;;12.20;99.90;;;;;;4986804;28;20125;-80
2022/10/27 01:40:05;;;;;;;12.43;8.05;;;12.20;99.90;;;;;;4987565;28;20121;-80
2022/10/27 01:42:39;;;;;;;7.63;6.30;;;12.20;99.90;;;;;;4988692;28;20043;-80
2022/10/27 01:45:09;;;;;;;14.88;7.70;;;12.20;99.90;;;;;;4988374;28;20053;-80
2022/10/27 01:47:36;;;;;;;13.48;8.88;;;12.20;99.90;;;;;;4987715;28;20108;-80
2022/10/27 01:50:02;;;;;;;13.50;7.47;;;12.20;99.90;;;;;;4987674;28;20428;-80
2022/10/27 01:52:40;;;;;;;11.43;7.88;;;12.20;99.90;;;;;;4987676;28;20430;-79
2022/10/27 01:55:27;;;;;;;9.57;7.25;;;12.30;99.90;;;;;;4988305;28;20072;-80
2022/10/27 01:57:55;;;;;;;11.45;6.88;;;12.20;99.90;;;;;;4963544;28;20110;-80
2022/10/27 02:00:21;;;;;;;11.77;7.47;;;12.20;99.90;;;;;;4987081;28;20050;-80
2022/10/27 02:03:13;;;;;;;8.02;6.60;;;12.20;99.90;;;;;;4989225;28;20130;-80
2022/10/27 02:06:01;;;;;;;12.18;7.95;;;12.20;99.90;;;;;;4986837;28;20061;-80
2022/10/27 02:08:43;;;;;;;8.77;7.00;;;12.30;99.90;;;;;;4987056;28;20149;-80
2022/10/27 02:11:10;;;;;;;9.37;6.83;;;12.30;99.90;;;;;;4988314;28;20299;-80
2022/10/27 02:13:43;;;;;;;8.68;7.28;;;12.30;99.90;;;;;;4986811;28;20718;-80
2022/10/27 02:16:23;;;;;;;8.88;7.97;;;12.30;99.90;;;;;;4988162;28;20061;-80
2022/10/27 02:18:54;;;;;;;10.63;7.40;;;12.30;99.90;;;;;;4971349;28;20077;-80
2022/10/27 02:21:22;;;;;;;9.13;7.80;;;12.30;99.90;;;;;;4987545;28;20117;-80
2022/10/27 02:23:47;;;;;;;12.20;8.40;;;12.30;99.90;;;;;;4987139;28;20074;-80
2022/10/27 02:26:28;;;;;;;10.40;9.15;;;12.30;99.90;;;;;;4986558;28;20097;-81
2022/10/27 02:29:01;;;;;;;13.45;8.95;;;12.30;99.90;;;;;;4986785;28;20133;-80
2022/10/27 02:31:34;;;;;;;13.50;9.85;;;12.30;99.90;;;;;;4968720;28;20081;-80
2022/10/27 02:34:02;;;;;;;14.70;10.05;;;12.30;99.90;;;;;;4968245;28;20305;-80
2022/10/27 02:36:28;;;;;;;15.50;9.13;;;12.40;99.90;;;;;;4967693;28;20074;-80
2022/10/27 02:38:53;;;;;;;18.40;9.10;;;12.30;99.90;;;;;;4966985;28;20070;-80
2022/10/27 02:41:19;;;;;;;13.57;9.00;;;12.30;99.90;;;;;;4968745;28;20047;-80
2022/10/27 02:43:45;;;;;;;9.63;8.63;;;12.30;99.90;;;;;;4973238;28;20141;-80
2022/10/27 02:46:10;;;;;;;12.90;8.68;;;12.30;99.90;;;;;;4987240;28;20467;-80
2022/10/27 02:48:36;;;;;;;11.45;8.65;;;12.30;99.90;;;;;;4987582;28;20046;-80
2022/10/27 02:51:01;;;;;;;12.80;8.95;;;12.40;99.90;;;;;;4984926;28;20133;-80
2022/10/27 02:53:27;;;;;;;10.55;8.38;;;12.30;99.90;;;;;;4987535;28;20515;-80
2022/10/27 02:55:52;;;;;;;13.88;9.82;;;12.30;99.90;;;;;;4987490;28;20035;-80
2022/10/27 02:58:18;;;;;;;11.98;9.10;;;12.30;99.90;;;;;;4986935;28;20054;-80
2022/10/27 03:00:44;;;;;;;11.85;9.30;;;12.30;99.90;;;;;;4987289;28;20042;-80
2022/10/27 03:03:09;;;;;;;11.02;9.77;;;12.30;99.90;;;;;;4975404;28;20104;-80
2022/10/27 03:05:35;;;;;;;18.60;8.32;;;12.40;99.90;;;;;;4985945;28;20053;-80
2022/10/27 03:08:00;;;;;;;12.93;9.13;;;12.40;99.90;;;;;;4986075;28;20042;-80
2022/10/27 03:10:26;;;;;;;12.98;9.45;;;12.40;99.90;;;;;;4986093;28;20702;-80
2022/10/27 03:12:52;;;;;;;15.02;9.23;;;12.40;99.90;;;;;;4985644;28;20064;-80
2022/10/27 03:15:17;;;;;;;12.02;9.00;;;12.40;99.90;;;;;;4987263;28;20055;-81
2022/10/27 03:17:47;;;;;;;12.50;9.30;;;12.40;99.90;;;;;;4986744;28;20104;-80
2022/10/27 03:20:14;;;;;;;12.90;11.02;;;12.40;99.90;;;;;;4986785;28;20507;-80
2022/10/27 03:22:40;;;;;;;11.93;9.30;;;12.40;99.90;;;;;;4985225;28;20449;-80
2022/10/27 03:25:07;;;;;;;15.70;9.52;;;12.40;99.90;;;;;;4985119;28;20052;-80
2022/10/27 03:27:32;;;;;;;12.25;9.95;;;12.40;99.90;;;;;;4987070;28;20061;-80
2022/10/27 03:29:58;;;;;;;13.82;8.98;;;12.40;99.90;;;;;;4975419;28;20251;-80
2022/10/27 03:32:23;;;;;;;19.33;10.13;;;12.40;99.90;;;;;;4967458;28;20057;-80
2022/10/27 03:34:49;;;;;;;12.85;9.70;;;12.40;99.90;;;;;;4967882;28;20126;-80
2022/10/27 03:37:14;;;;;;;22.00;9.40;;;12.40;99.90;;;;;;4967003;28;20057;-81
2022/10/27 03:39:40;;;;;;;13.60;10.00;;;12.50;99.90;;;;;;4967491;28;20624;-80
2022/10/27 03:42:05;;;;;;;10.07;8.38;;;12.40;99.90;;;;;;4965842;28;20103;-79
2022/10/27 03:44:31;;;;;;;12.25;8.85;;;12.50;99.90;;;;;;4978935;28;20092;-80
2022/10/27 03:46:57;;;;;;;15.00;8.80;;;12.50;99.90;;;;;;4986389;28;20042;-80
2022/10/27 03:49:22;;;;;;;12.90;9.73;;;12.50;99.90;;;;;;4986313;28;20078;-80
2022/10/27 03:51:48;;;;;;;14.32;10.95;;;12.50;99.90;;;;;;4984922;28;20053;-80
2022/10/27 03:54:13;;;;;;;11.07;7.55;;;12.50;99.90;;;;;;4985121;28;20564;-80
2022/10/27 03:56:39;;;;;;;12.88;9.77;;;12.50;99.90;;;;;;4984942;28;20111;-80
2022/10/27 03:59:04;;;;;;;15.48;8.38;;;12.50;99.90;;;;;;4986157;28;20042;-80
2022/10/27 04:01:32;;;;;;;14.40;9.23;;;12.50;99.90;;;;;;4985036;28;20042;-80
2022/10/27 04:03:58;;;;;;;12.43;9.35;;;12.50;99.90;;;;;;4984682;28;20073;-80
2022/10/27 04:06:23;;;;;;;13.13;10.10;;;12.50;99.90;;;;;;4985466;28;20132;-80
2022/10/27 04:08:49;;;;;;;20.23;10.10;;;12.50;99.90;;;;;;4986653;28;20065;-80
2022/10/27 04:11:15;;;;;;;13.48;8.93;;;12.40;99.90;;;;;;4969012;28;20100;-80
2022/10/27 04:13:40;;;;;;;12.23;9.30;;;12.40;99.90;;;;;;4986090;28;20045;-80
2022/10/27 04:16:07;;;;;;;15.20;9.18;;;12.40;99.90;;;;;;4985525;28;20052;-80
2022/10/27 04:18:32;;;;;;;12.02;8.43;;;12.40;99.90;;;;;;4986243;28;20485;-80
2022/10/27 04:21:02;;;;;;;13.02;9.18;;;12.40;99.90;;;;;;4985080;28;20277;-80
2022/10/27 04:23:28;;;;;;;9.75;7.68;;;12.50;99.90;;;;;;4986114;28;20129;-80
2022/10/27 04:25:54;;;;;;;12.32;8.75;;;12.40;99.90;;;;;;4985917;28;20126;-80
2022/10/27 04:28:20;;;;;;;13.98;8.00;;;12.40;99.90;;;;;;4984330;28;20100;-80
2022/10/27 04:30:46;;;;;;;11.63;8.98;;;12.40;99.90;;;;;;4966649;28;20051;-80
2022/10/27 04:33:11;;;;;;;12.05;8.45;;;12.40;99.90;;;;;;4975026;28;20078;-80
2022/10/27 04:35:37;;;;;;;12.38;8.50;;;12.40;99.90;;;;;;4984713;28;20425;-80
2022/10/27 04:38:03;;;;;;;10.50;8.25;;;12.40;99.90;;;;;;4985957;28;20043;-80
2022/10/27 04:40:28;;;;;;;10.88;8.98;;;12.40;99.90;;;;;;4984463;28;20044;-80
2022/10/27 04:42:54;;;;;;;10.85;9.25;;;12.40;99.90;;;;;;4981546;28;20126;-80
2022/10/27 04:45:20;;;;;;;13.07;9.57;;;12.40;99.90;;;;;;4980159;28;20074;-79
2022/10/27 04:47:45;;;;;;;11.45;8.90;;;12.40;99.90;;;;;;4986157;28;20046;-80
2022/10/27 04:50:15;;;;;;;11.52;9.55;;;12.40;99.90;;;;;;4985594;28;20061;-80
2022/10/27 04:52:41;;;;;;;10.38;8.43;;;12.40;99.90;;;;;;4985729;28;20042;-80
2022/10/27 04:55:08;;;;;;;10.52;9.35;;;12.40;99.90;;;;;;4985501;28;20504;-80
2022/10/27 04:57:34;;;;;;;12.90;8.77;;;12.40;99.90;;;;;;4982750;28;20621;-80
2022/10/27 05:00:00;;;;;;;12.02;9.27;;;12.40;99.90;;;;;;4966081;28;20497;-80
2022/10/27 05:02:25;;;;;;;11.57;9.43;;;12.40;99.90;;;;;;4970178;28;20043;-80
2022/10/27 05:04:51;;;;;;;12.40;8.57;;;12.50;99.90;;;;;;4977290;28;20567;-80
2022/10/27 05:07:17;;;;;;;17.85;10.75;;;12.50;99.90;;;;;;4972772;28;20042;-80
2022/10/27 05:09:42;;;;;;;15.85;8.65;;;12.50;99.90;;;;;;4971659;28;20078;-80
2022/10/27 05:12:08;;;;;;;17.42;9.15;;;12.50;99.90;;;;;;4978877;28;20043;-80
2022/10/27 05:14:33;;;;;;;11.00;8.27;;;12.50;99.90;;;;;;4977884;28;20054;-80
2022/10/27 05:16:59;;;;;;;17.58;9.95;;;12.50;99.90;;;;;;4985475;28;20558;-80
2022/10/27 05:19:24;;;;;;;13.90;9.02;;;12.60;99.90;;;;;;4983275;28;20060;-80
2022/10/27 05:21:50;;;;;;;10.55;8.57;;;12.60;99.90;;;;;;4971446;28;20100;-80
2022/10/27 05:24:15;;;;;;;14.75;9.95;;;12.60;99.90;;;;;;4981082;28;20050;-80
2022/10/27 05:26:41;;;;;;;12.73;9.82;;;12.60;99.90;;;;;;4983406;28;20042;-80
2022/10/27 05:29:07;;;;;;;13.55;9.63;;;12.60;99.90;;;;;;4979638;28;20089;-84
2022/10/27 05:31:32;;;;;;;13.23;8.45;;;12.60;99.90;;;;;;4984583;28;20041;-78
2022/10/27 05:33:58;;;;;;;13.70;8.07;;;12.60;99.90;;;;;;4984993;28;20544;-78
2022/10/27 05:36:23;;;;;;;11.48;8.38;;;12.60;99.90;;;;;;4965448;28;20125;-77
2022/10/27 05:38:49;;;;;;;10.82;8.23;;;12.60;99.90;;;;;;4983456;28;20501;-77
2022/10/27 05:41:14;;;;;;;12.07;8.40;;;12.70;99.90;;;;;;4974452;28;20395;-78
2022/10/27 05:43:40;;;;;;;14.93;8.65;;;12.70;99.90;;;;;;4985458;28;20046;-77
2022/10/27 05:46:06;;;;;;;11.00;8.35;;;12.70;99.90;;;;;;4984544;28;20048;-77
2022/10/27 05:48:33;;;;;;;12.20;8.65;;;12.70;99.90;;;;;;4981745;28;20469;-77
2022/10/27 05:50:58;;;;;;;11.50;8.63;;;12.70;99.90;;;;;;4981370;28;20082;-77
2022/10/27 05:53:24;;;;;;;12.05;8.20;;;12.70;99.90;;;;;;4986604;28;20046;-78
2022/10/27 05:55:53;;;;;;;14.48;8.68;;;12.70;99.90;;;;;;4983776;28;20039;-78
2022/10/27 05:58:19;;;;;;;12.20;9.13;;;12.80;99.90;;;;;;4977247;28;20049;-78
2022/10/27 06:00:45;;;;;;;15.07;9.80;;;12.80;99.90;;;;;;4977638;28;20077;-77
2022/10/27 06:03:22;;;;;;;10.35;9.23;;;12.80;99.90;;;;;;4982691;28;20501;-79
2022/10/27 06:05:48;;;;;;;14.88;8.90;;;12.80;99.90;;;;;;4987632;28;20064;-76
2022/10/27 06:08:15;;;;;;;13.02;9.40;;;12.80;99.90;;;;;;4986806;28;20038;-79
2022/10/27 06:10:40;;;;;;;10.88;7.93;;;12.80;99.90;;;;;;4987994;28;20555;-79
2022/10/27 06:13:09;;;;;;;11.15;7.95;;;12.80;99.90;;;;;;4987493;28;20042;-78
2022/10/27 06:15:35;;;;;;;14.50;9.88;;;12.80;99.90;;;;;;4987409;28;20085;-78
2022/10/27 06:18:01;;;;;;;12.63;9.32;;;12.90;99.90;;;;;;4987247;28;20046;-79
2022/10/27 06:20:27;;;;;;;16.45;10.00;;;12.90;99.90;;;;;;4986856;28;20045;-78
2022/10/27 06:22:53;;;;;;;14.77;8.73;;;12.90;99.90;;;;;;4986894;28;20043;-78
2022/10/27 06:25:18;;;;;;;12.25;9.50;;;12.90;99.90;;;;;;4987850;28;20046;-78
2022/10/27 06:27:44;;;;;;;14.48;9.77;;;12.90;99.90;;;;;;4985739;28;20050;-79
2022/10/27 06:30:11;;;;;;;11.88;8.48;;;12.90;99.90;;;;;;4986819;28;20145;-78
2022/10/27 06:32:38;;;;;;;11.13;8.02;;;12.90;99.90;;;;;;4987104;28;20042;-79
2022/10/27 06:35:04;;;;;;;15.57;9.55;;;12.90;99.90;;;;;;4985050;28;20096;-79
2022/10/27 06:37:29;;;;;;;10.07;7.30;;;12.90;99.90;;;;;;4985868;28;20034;-79
2022/10/27 06:39:55;;;;;;;9.70;7.38;;;12.90;99.90;;;;;;4985241;28;20038;-79
2022/10/27 06:42:21;;;;;;;12.93;9.07;;;12.90;99.90;;;;;;4985752;28;20587;-80
2022/10/27 06:44:47;;;;;;;14.50;9.07;;;12.90;99.90;;;;;;4987016;28;20046;-79
2022/10/27 06:47:13;;;;;;;11.43;8.32;;;12.90;99.90;;;;;;4984525;28;20451;-79
2022/10/27 06:49:39;;;;;;;16.17;7.97;;;12.90;99.90;;;;;;4986595;28;20119;-79
2022/10/27 06:52:04;;;;;;;14.70;9.07;;;12.90;99.90;;;;;;4982918;28;20603;-79
2022/10/27 06:54:30;;;;;;;12.38;8.35;;;12.90;99.90;;;;;;4986499;28;20089;-79
2022/10/27 06:56:56;;;;;;;7.22;6.13;;;12.90;99.90;;;;;;4984569;28;20531;-79
2022/10/27 06:59:21;;;;;;;10.98;6.95;;;12.90;99.90;;;;;;4984785;28;20420;-79
2022/10/27 07:01:47;;;;;;;9.82;6.20;;;12.90;99.90;;;;;;4986570;28;20478;-79
2022/10/27 07:04:13;;;;;;;13.98;8.02;;;12.90;99.90;;;;;;4985489;28;20034;-79
2022/10/27 07:06:38;;;;;;;17.23;9.07;;;12.90;99.90;;;;;;4985124;28;20046;-79
2022/10/27 07:09:04;;;;;;;10.00;6.93;;;12.90;99.90;;;;;;4984336;28;20112;-79
2022/10/27 07:11:29;;;;;;;12.15;8.20;;;12.90;99.90;;;;;;4984410;28;20047;-79
2022/10/27 07:13:55;;;;;;;9.05;7.13;;;12.90;99.90;;;;;;4985789;28;20122;-79
2022/10/27 07:16:21;;;;;;;10.48;7.32;;;12.90;99.90;;;;;;4984312;28;20100;-79
2022/10/27 07:18:47;;;;;;;10.70;8.27;;;12.90;99.90;;;;;;4986188;28;20042;-79
2022/10/27 07:21:13;;;;;;;13.68;8.18;;;12.90;99.90;;;;;;4984678;28;20496;-79
2022/10/27 07:23:39;;;;;;;13.68;8.85;;;12.90;99.90;;;;;;4985756;28;20050;-79
2022/10/27 07:26:05;;;;;;;13.40;9.38;;;12.90;99.90;;;;;;4972468;28;20054;-80
2022/10/27 07:28:30;;;;;;;13.25;9.60;;;12.90;99.90;;;;;;4966379;28;20113;-79
2022/10/27 07:30:56;;;;;;;13.77;9.25;;;12.90;99.90;;;;;;4966098;28;20468;-79
2022/10/27 07:33:22;;;;;;;15.15;8.88;;;12.90;99.90;;;;;;4966059;28;20042;-79
2022/10/27 07:35:52;;;;;;;10.93;9.00;;;13.00;99.90;;;;;;4963932;28;20046;-79
2022/10/27 07:38:18;;;;;;;14.30;8.95;;;13.00;99.90;;;;;;4966365;28;20536;-80
2022/10/27 07:40:44;;;;;;;20.20;8.75;;;13.00;99.90;;;;;;4965925;28;20064;-79
2022/10/27 07:43:10;;;;;;;13.63;9.65;;;13.00;99.90;;;;;;4966141;28;20058;-79
2022/10/27 07:45:38;;;;;;;12.98;8.65;;;13.10;99.90;;;;;;4966370;28;20055;-79
2022/10/27 07:48:05;;;;;;;11.35;8.63;;;13.10;99.90;;;;;;4964575;28;20493;-79
2022/10/27 07:50:32;;;;;;;17.60;8.85;;;13.10;99.90;;;;;;4963726;28;20057;-79
2022/10/27 07:52:59;;;;;;;13.23;9.15;;;13.10;99.90;;;;;;4965818;28;20126;-79
2022/10/27 07:55:26;;;;;;;14.18;8.73;;;13.10;99.90;;;;;;4966077;28;20043;-79
2022/10/27 07:58:04;;;;;;;14.85;9.38;;;13.10;99.90;;;;;;4965416;28;20046;-79
2022/10/27 08:00:31;;;;;;;14.48;9.63;;;13.10;99.90;;;;;;4964801;28;20054;-79
2022/10/27 08:03:01;;;;;;;14.32;9.30;;;13.10;99.90;;;;;;4965364;28;20051;-79
2022/10/27 08:05:28;;;;;;;10.27;8.00;;;13.20;99.90;;;;;;4964680;28;20043;-79
2022/10/27 08:07:58;;;;;;;14.40;9.07;;;13.10;99.90;;;;;;4964207;28;20046;-79
2022/10/27 08:10:24;;;;;;;13.68;8.55;;;13.20;99.90;;;;;;4965944;28;20042;-79
2022/10/27 08:12:49;;;;;;;13.30;7.63;;;13.20;99.90;;;;;;4965056;28;20050;-79
2022/10/27 08:15:15;;;;;;;9.93;7.55;;;13.20;99.90;;;;;;4965740;28;20170;-79
2022/10/27 08:17:41;;;;;;;11.45;8.23;;;13.20;99.90;;;;;;4964144;28;20046;-79
2022/10/27 08:20:08;;;;;;;8.85;7.50;;;13.20;99.90;;;;;;4963377;28;20513;-79
2022/10/27 08:22:34;;;;;;;12.52;7.95;;;13.20;99.90;;;;;;4965366;28;20049;-79
2022/10/27 08:25:00;;;;;;;15.38;8.52;;;13.20;99.90;;;;;;4967741;28;20137;-79
2022/10/27 08:27:25;;;;;;;9.52;7.45;;;13.20;99.90;;;;;;4984788;28;20058;-79
2022/10/27 08:29:51;;;;;;;11.40;6.90;;;13.30;99.90;;;;;;4983679;28;20372;-79
2022/10/27 08:32:16;;;;;;;11.10;8.40;;;13.30;99.90;;;;;;4984833;28;20078;-79
2022/10/27 08:34:42;;;;;;;8.13;6.57;;;13.30;99.90;;;;;;4983905;28;20097;-79
2022/10/27 08:37:07;;;;;;;13.73;7.40;;;13.40;99.90;;;;;;4984532;28;20042;-79
2022/10/27 08:39:33;;;;;;;11.30;7.30;;;13.40;99.90;;;;;;4985117;28;20497;-79
2022/10/27 08:42:04;;;;;;;9.52;6.80;;;13.50;99.90;;;;;;4985042;28;20054;-79
2022/10/27 08:44:45;;;;;;;15.05;6.70;;;13.50;99.90;;;;;;4984653;28;20497;-79
2022/10/27 08:47:21;;;;;;;10.00;5.72;;;13.60;99.90;;;;;;4984427;28;20069;-79
2022/10/27 08:50:01;;;;;;;13.10;6.80;;;13.60;99.90;;;;;;4984418;28;20054;-79
2022/10/27 08:52:32;;;;;;;12.40;6.57;;;13.70;99.90;;;;;;4984563;28;20046;-79
2022/10/27 08:55:12;;;;;;;8.43;6.10;;;13.70;99.90;;;;;;4984268;28;20528;-79
2022/10/27 08:57:42;;;;;;;11.60;5.82;;;13.80;99.90;;;;;;4984870;28;20042;-79
2022/10/27 09:00:12;;;;;;;8.23;5.80;;;13.90;99.90;;;;;;4983304;28;20042;-79
2022/10/27 09:03:15;;;;;;;8.25;6.10;;;13.90;99.90;;;;;;4984830;28;20042;-79
2022/10/27 09:06:10;;;;;;;7.18;5.28;;;14.00;99.90;;;;;;4983950;28;20418;-79
2022/10/27 09:08:44;;;;;;;5.18;4.68;;;14.10;99.90;;;;;;4984506;28;20042;-79
2022/10/27 09:11:36;;;;;;;7.30;5.30;;;14.10;99.90;;;;;;4984297;28;20047;-79
2022/10/27 09:14:26;;;;;;;6.10;5.50;;;14.10;99.90;;;;;;4984071;28;20404;-79
2022/10/27 09:17:12;;;;;;;7.03;4.97;;;14.20;99.90;;;;;;4987884;28;20058;-79
2022/10/27 09:19:54;;;;;;;5.88;5.28;;;14.20;99.90;;;;;;4987225;28;20070;-79
2022/10/27 09:22:20;;;;;;;4.93;4.05;;;14.20;99.90;;;;;;4987197;28;20052;-79
2022/10/27 09:24:59;;;;;;;9.02;5.75;;;14.30;99.90;;;;;;4988168;28;20050;-79
2022/10/27 09:27:24;;;;;;;11.15;4.05;;;14.30;99.90;;;;;;4988216;28;20400;-79
2022/10/27 09:29:51;;;;;;;5.82;4.20;;;14.40;99.90;;;;;;4987625;28;20101;-79
2022/10/27 09:32:25;;;;;;;10.65;4.22;;;14.40;99.90;;;;;;4988203;28;20540;-79
2022/10/27 09:35:10;;;;;;;7.63;4.70;;;14.40;99.90;;;;;;4986839;28;20030;-79
2022/10/27 09:37:41;;;;;;;4.55;4.10;;;14.50;99.90;;;;;;4987776;28;20047;-79
2022/10/27 09:40:11;;;;;;;8.98;4.85;;;14.50;99.90;;;;;;4987873;28;20105;-79
2022/10/27 09:42:37;;;;;;;4.82;4.00;;;14.50;99.90;;;;;;4987179;28;20042;-80
2022/10/27 09:45:16;;;;;;;6.18;4.50;;;14.50;99.90;;;;;;4986921;28;20061;-78
2022/10/27 09:47:45;;;;;;;8.10;4.88;;;14.50;99.90;;;;;;4985919;28;20046;-78
2022/10/27 09:50:24;;;;;;;7.55;4.43;;;14.50;99.90;;;;;;4957460;28;20046;-79
2022/10/27 09:52:50;;;;;;;11.63;5.57;;;14.50;99.90;;;;;;4970593;28;20059;-79
2022/10/27 09:55:17;;;;;;;10.35;5.00;;;14.50;99.90;;;;;;4987441;28;20042;-79
2022/10/27 09:57:45;;;;;;;7.55;4.45;;;14.60;99.90;;;;;;4985790;28;20535;-79
2022/10/27 10:00:20;;;;;;;11.13;6.55;;;14.60;99.90;;;;;;4985586;28;20042;-79
2022/10/27 10:03:05;;;;;;;10.38;4.70;;;14.60;99.90;;;;;;4983811;28;20082;-79
2022/10/27 10:05:34;;;;;;;7.30;5.07;;;14.60;99.90;;;;;;4983251;28;20102;-79
2022/10/27 10:08:23;;;;;;;10.00;5.05;;;14.70;99.90;;;;;;4969361;28;20050;-79
2022/10/27 10:11:16;;;;;;;7.38;4.70;;;14.70;99.90;;;;;;4976685;28;20046;-78
2022/10/27 10:13:56;;;;;;;5.97;4.30;;;14.70;99.90;;;;;;4967640;28;20051;-78
2022/10/27 10:16:21;;;;;;;10.25;5.05;;;14.80;99.90;;;;;;4977849;28;20042;-79
2022/10/27 10:19:03;;;;;;;7.38;4.57;;;14.80;99.90;;;;;;4985660;28;20097;-77
2022/10/27 10:21:50;;;;;;;4.68;4.20;;;14.80;99.90;;;;;;4987616;28;20054;-77
2022/10/27 10:24:26;;;;;;;4.93;3.92;;;14.90;99.90;;;;;;4969973;28;20134;-77
2022/10/27 10:26:55;;;;;;;9.82;4.47;;;14.90;99.90;;;;;;4986462;28;20057;-77
2022/10/27 10:29:28;;;;;;;8.15;4.22;;;14.90;99.90;;;;;;4981238;28;20043;-77
2022/10/27 10:32:06;;;;;;;11.57;4.32;;;15.00;99.90;;;;;;4968267;28;20035;-77
2022/10/27 10:34:33;;;;;;;7.10;4.65;;;15.00;99.90;;;;;;4970238;28;20061;-76
2022/10/27 10:36:59;;;;;;;12.82;4.60;;;15.00;99.90;;;;;;4987622;28;20045;-77
2022/10/27 10:39:36;;;;;;;6.05;3.92;;;15.10;99.90;;;;;;4987710;28;20069;-77
2022/10/27 10:42:20;;;;;;;8.85;4.47;;;15.10;99.90;;;;;;4986457;28;20050;-77
2022/10/27 10:44:46;;;;;;;9.32;3.67;;;15.10;99.90;;;;;;4986437;28;20050;-77
2022/10/27 10:47:37;;;;;;;6.47;3.75;;;15.20;99.90;;;;;;4987235;28;20046;-78
2022/10/27 10:50:04;;;;;;;6.93;3.60;;;15.40;99.90;;;;;;4972249;28;20085;-77
2022/10/27 10:52:37;;;;;;;7.28;4.03;;;15.40;99.90;;;;;;4986096;28;20325;-77
2022/10/27 10:55:15;;;;;;;5.30;3.50;;;15.50;99.90;;;;;;4986983;28;20038;-77
2022/10/27 10:57:44;;;;;;;5.32;3.28;;;15.60;99.90;;;;;;4987367;28;20564;-78
2022/10/27 11:00:18;;;;;;;4.65;2.90;;;15.60;99.90;;;;;;4986716;28;20045;-78
2022/10/27 11:03:01;;;;;;;4.70;2.67;;;15.70;99.90;;;;;;4987388;28;20038;-78
2022/10/27 11:05:33;;;;;;;;;;;15.70;99.90;;;;;;4985521;28;20086;-78
2022/10/27 11:07:59;;;;;;;3.28;2.70;;;15.80;99.90;;;;;;4987150;28;19922;-78
2022/10/27 11:10:36;;;;;;;8.07;3.33;;;15.90;99.90;;;;;;4986830;28;20105;-78
2022/10/27 11:13:04;;;;;;;5.78;2.85;;;15.90;99.90;;;;;;4986781;28;20042;-78
2022/10/27 11:15:39;;;;;;;2.72;2.30;;;15.90;99.90;;;;;;4986832;28;20050;-78
2022/10/27 11:18:45;;;;;;;4.40;2.35;;;15.90;99.90;;;;;;4987151;28;20043;-78
2022/10/27 11:21:34;;;;;;;16.95;3.47;;;16.00;99.90;;;;;;4919426;29;20066;-78
2022/10/27 11:24:15;;;;;;;2.88;2.25;;;16.00;99.90;;;;;;4971500;28;20063;-78
2022/10/27 11:27:02;;;;;;;5.15;3.03;;;16.10;99.90;;;;;;4984603;28;20057;-77
2022/10/27 11:29:54;;;;;;;5.25;2.47;;;16.10;99.90;;;;;;4986764;28;20726;-78
2022/10/27 11:32:43;;;;;;;3.60;2.22;;;16.20;99.90;;;;;;4985655;28;20095;-78
2022/10/27 11:35:12;;;;;;;6.75;2.83;;;16.30;99.90;;;;;;4985691;28;20451;-77
2022/10/27 11:38:11;;;;;;;4.45;2.72;;;16.30;99.90;;;;;;4985908;28;20124;-79
2022/10/27 11:40:43;;;;;;;3.38;2.00;;;16.40;99.90;;;;;;4976573;28;20031;-78
2022/10/27 11:43:40;;;;;;;7.28;2.60;;;16.40;99.90;;;;;;4985169;28;20046;-79
2022/10/27 11:46:19;;;;;;;5.13;2.42;;;16.50;99.90;;;;;;4977881;28;20077;-78
2022/10/27 11:48:56;;;;;;;9.50;2.08;;;16.50;99.90;;;;;;4974482;28;20050;-78
2022/10/27 11:51:34;;;;;;;4.20;2.70;;;16.50;99.90;;;;;;4983551;28;20049;-78
2022/10/27 11:54:00;;;;;;;3.50;2.03;;;16.50;99.90;;;;;;4986667;28;20045;-78
2022/10/27 11:56:56;;;;;;;3.50;2.47;;;16.50;99.90;;;;;;4985610;28;20043;-79
2022/10/27 11:59:51;;;;;;;3.33;1.88;;;16.60;99.90;;;;;;4986266;28;20046;-79
2022/10/27 12:02:44;;;;;;;3.53;2.45;;;16.70;99.90;;;;;;4986662;28;20070;-79
2022/10/27 12:05:15;;;;;;;4.60;2.42;;;16.70;99.90;;;;;;4985365;28;20673;-79
2022/10/27 12:08:06;;;;;;;3.45;1.63;;;16.70;99.90;;;;;;4986305;28;20117;-79
2022/10/27 12:10:42;;;;;;;4.85;1.98;;;16.70;99.90;;;;;;4986143;28;20052;-79
2022/10/27 12:13:26;;;;;;;2.40;1.80;;;16.80;99.90;;;;;;4985529;28;20097;-79
2022/10/27 12:16:01;;;;;;;2.08;1.85;;;16.80;99.90;;;;;;4985483;28;20062;-79
2022/10/27 12:19:00;;;;;;;2.70;1.88;;;16.80;99.90;;;;;;4986095;28;20054;-79
2022/10/27 12:21:42;;;;;;;3.75;1.65;;;16.80;99.90;;;;;;4984535;28;20077;-79
2022/10/27 12:24:15;;;;;;;2.65;2.00;;;16.80;99.90;;;;;;4980230;28;20181;-80
2022/10/27 12:26:49;;;;;;;1.98;1.45;;;16.80;99.90;;;;;;4982423;28;20046;-79
2022/10/27 12:29:16;;;;;;;2.33;1.80;;;16.80;99.90;;;;;;4982380;28;20094;-79
2022/10/27 12:32:09;;;;;;;5.22;2.10;;;16.80;99.90;;;;;;4968167;28;20046;-79
2022/10/27 12:34:51;;;;;;;3.35;1.90;;;16.80;99.90;;;;;;4962427;28;20057;-80
2022/10/27 12:37:34;;;;;;;5.63;2.08;;;16.70;99.90;;;;;;4982843;28;20050;-80
2022/10/27 12:40:06;;;;;;;2.75;1.50;;;16.70;99.90;;;;;;4970260;28;20042;-80
2022/10/27 12:42:40;;;;;;;1.70;1.60;;;16.70;99.90;;;;;;4984250;28;20042;-80
2022/10/27 12:45:21;;;;;;;10.23;2.10;;;16.70;99.90;;;;;;4983408;28;20050;-80
2022/10/27 12:47:55;;;;;;;3.58;1.83;;;16.70;99.90;;;;;;4973383;28;20452;-80
2022/10/27 12:50:41;;;;;;;2.75;2.33;;;16.70;99.90;;;;;;4974403;28;20050;-80
2022/10/27 12:53:39;;;;;;;1.17;1.13;;;16.70;99.90;;;;;;4981326;28;20129;-80
2022/10/27 12:56:25;;;;;;;2.67;2.03;;;16.80;99.90;;;;;;4970550;28;20071;-80
2022/10/27 12:59:24;;;;;;;2.20;1.17;;;16.80;99.90;;;;;;4985023;28;20046;-80
2022/10/27 13:01:56;;;;;;;3.05;2.22;;;16.80;99.90;;;;;;4981776;28;20133;-81